sensor_id;sensor_type;location;lat;lon;timestamp;P1;durP1;ratioP1;P2;durP2;ratioP2
79644;SDS011;69117;47.148;18.954;2023-04-24T00:02:31;4.47;;;3.20;;
79644;SDS011;69117;47.148;18.954;2023-04-24T00:05:34;4.57;;;3.25;;
79644;SDS011;69117;47.148;18.954;2023-04-24T00:08:35;3.75;;;2.95;;
79644;SDS011;69117;47.148;18.954;2023-04-24T00:11:37;6.13;;;3.33;;
79644;SDS011;69117;47.148;18.954;2023-04-24T00:14:39;6.20;;;3.30;;
79644;SDS011;69117;47.148;18.954;2023-04-24T00:17:41;5.32;;;3.53;;
79644;SDS011;69117;47.148;18.954;2023-04-24T00:20:42;4.97;;;3.50;;
79644;SDS011;69117;47.148;18.954;2023-04-24T00:23:45;7.63;;;3.45;;
79644;SDS011;69117;47.148;18.954;2023-04-24T00:26:46;7.78;;;3.75;;
79644;SDS011;69117;47.148;18.954;2023-04-24T00:29:48;6.47;;;3.10;;
79644;SDS011;69117;47.148;18.954;2023-04-24T00:32:50;5.05;;;2.67;;
79644;SDS011;69117;47.148;18.954;2023-04-24T00:35:52;7.10;;;4.10;;
79644;SDS011;69117;47.148;18.954;2023-04-24T00:38:54;5.43;;;4.28;;
79644;SDS011;69117;47.148;18.954;2023-04-24T00:41:56;6.70;;;4.32;;
79644;SDS011;69117;47.148;18.954;2023-04-24T00:44:58;8.88;;;5.00;;
79644;SDS011;69117;47.148;18.954;2023-04-24T00:48:00;9.63;;;6.03;;
79644;SDS011;69117;47.148;18.954;2023-04-24T00:51:03;6.05;;;4.47;;
79644;SDS011;69117;47.148;18.954;2023-04-24T00:54:04;6.88;;;4.50;;
79644;SDS011;69117;47.148;18.954;2023-04-24T00:57:06;8.05;;;4.53;;
79644;SDS011;69117;47.148;18.954;2023-04-24T01:00:08;7.57;;;4.40;;
79644;SDS011;69117;47.148;18.954;2023-04-24T01:03:11;8.02;;;4.95;;
79644;SDS011;69117;47.148;18.954;2023-04-24T01:06:15;6.85;;;4.78;;
79644;SDS011;69117;47.148;18.954;2023-04-24T01:09:17;7.70;;;5.10;;
79644;SDS011;69117;47.148;18.954;2023-04-24T01:12:20;9.57;;;5.63;;
79644;SDS011;69117;47.148;18.954;2023-04-24T01:15:21;9.43;;;5.75;;
79644;SDS011;69117;47.148;18.954;2023-04-24T01:18:23;6.70;;;5.00;;
79644;SDS011;69117;47.148;18.954;2023-04-24T01:21:25;6.85;;;4.72;;
79644;SDS011;69117;47.148;18.954;2023-04-24T01:24:31;8.00;;;4.78;;
79644;SDS011;69117;47.148;18.954;2023-04-24T01:27:32;8.57;;;5.32;;
79644;SDS011;69117;47.148;18.954;2023-04-24T01:30:34;7.28;;;4.93;;
79644;SDS011;69117;47.148;18.954;2023-04-24T01:33:36;7.47;;;4.78;;
79644;SDS011;69117;47.148;18.954;2023-04-24T01:36:38;6.80;;;4.65;;
79644;SDS011;69117;47.148;18.954;2023-04-24T01:39:40;7.75;;;4.40;;
79644;SDS011;69117;47.148;18.954;2023-04-24T01:42:42;6.95;;;4.88;;
79644;SDS011;69117;47.148;18.954;2023-04-24T01:45:44;6.68;;;4.63;;
79644;SDS011;69117;47.148;18.954;2023-04-24T01:48:46;8.48;;;4.82;;
79644;SDS011;69117;47.148;18.954;2023-04-24T01:51:47;8.13;;;4.85;;
79644;SDS011;69117;47.148;18.954;2023-04-24T01:54:49;8.13;;;4.18;;
79644;SDS011;69117;47.148;18.954;2023-04-24T01:57:52;8.40;;;4.57;;
79644;SDS011;69117;47.148;18.954;2023-04-24T02:00:55;6.03;;;5.28;;
79644;SDS011;69117;47.148;18.954;2023-04-24T02:04:00;6.95;;;4.32;;
79644;SDS011;69117;47.148;18.954;2023-04-24T02:07:01;7.20;;;4.63;;
79644;SDS011;69117;47.148;18.954;2023-04-24T02:10:03;6.28;;;4.00;;
79644;SDS011;69117;47.148;18.954;2023-04-24T02:13:05;7.47;;;3.63;;
79644;SDS011;69117;47.148;18.954;2023-04-24T02:16:07;6.03;;;4.25;;
79644;SDS011;69117;47.148;18.954;2023-04-24T02:19:09;7.05;;;4.70;;
79644;SDS011;69117;47.148;18.954;2023-04-24T02:22:11;7.22;;;4.80;;
79644;SDS011;69117;47.148;18.954;2023-04-24T02:25:13;7.70;;;4.68;;
79644;SDS011;69117;47.148;18.954;2023-04-24T02:28:14;10.10;;;5.13;;
79644;SDS011;69117;47.148;18.954;2023-04-24T02:31:16;6.57;;;4.75;;
79644;SDS011;69117;47.148;18.954;2023-04-24T02:34:18;6.25;;;4.32;;
79644;SDS011;69117;47.148;18.954;2023-04-24T02:37:19;6.28;;;3.80;;
79644;SDS011;69117;47.148;18.954;2023-04-24T02:40:21;6.82;;;4.70;;
79644;SDS011;69117;47.148;18.954;2023-04-24T02:43:22;9.60;;;5.45;;
79644;SDS011;69117;47.148;18.954;2023-04-24T02:46:24;9.18;;;5.03;;
79644;SDS011;69117;47.148;18.954;2023-04-24T02:49:26;10.50;;;4.88;;
79644;SDS011;69117;47.148;18.954;2023-04-24T02:52:28;10.43;;;4.75;;
79644;SDS011;69117;47.148;18.954;2023-04-24T02:55:29;8.30;;;4.65;;
79644;SDS011;69117;47.148;18.954;2023-04-24T02:58:31;6.40;;;4.63;;
79644;SDS011;69117;47.148;18.954;2023-04-24T03:01:33;7.88;;;4.97;;
79644;SDS011;69117;47.148;18.954;2023-04-24T03:04:35;7.68;;;5.38;;
79644;SDS011;69117;47.148;18.954;2023-04-24T03:07:37;6.45;;;4.53;;
79644;SDS011;69117;47.148;18.954;2023-04-24T03:10:39;7.35;;;3.88;;
79644;SDS011;69117;47.148;18.954;2023-04-24T03:13:41;7.78;;;4.45;;
79644;SDS011;69117;47.148;18.954;2023-04-24T03:16:42;5.90;;;4.40;;
79644;SDS011;69117;47.148;18.954;2023-04-24T03:19:44;8.05;;;4.88;;
79644;SDS011;69117;47.148;18.954;2023-04-24T03:22:46;5.22;;;3.90;;
79644;SDS011;69117;47.148;18.954;2023-04-24T03:25:47;7.22;;;4.18;;
79644;SDS011;69117;47.148;18.954;2023-04-24T03:28:49;7.90;;;4.05;;
79644;SDS011;69117;47.148;18.954;2023-04-24T03:31:51;9.48;;;5.53;;
79644;SDS011;69117;47.148;18.954;2023-04-24T03:34:53;7.35;;;4.35;;
79644;SDS011;69117;47.148;18.954;2023-04-24T03:37:54;5.38;;;4.43;;
79644;SDS011;69117;47.148;18.954;2023-04-24T03:40:56;10.93;;;4.50;;
79644;SDS011;69117;47.148;18.954;2023-04-24T03:43:58;6.07;;;3.90;;
79644;SDS011;69117;47.148;18.954;2023-04-24T03:46:59;7.78;;;4.55;;
79644;SDS011;69117;47.148;18.954;2023-04-24T03:50:01;8.48;;;4.32;;
79644;SDS011;69117;47.148;18.954;2023-04-24T03:53:03;6.32;;;4.40;;
79644;SDS011;69117;47.148;18.954;2023-04-24T03:56:05;7.20;;;4.63;;
79644;SDS011;69117;47.148;18.954;2023-04-24T03:59:06;6.63;;;4.88;;
79644;SDS011;69117;47.148;18.954;2023-04-24T04:02:08;8.57;;;4.82;;
79644;SDS011;69117;47.148;18.954;2023-04-24T04:05:10;7.47;;;4.53;;
79644;SDS011;69117;47.148;18.954;2023-04-24T04:08:11;8.35;;;4.43;;
79644;SDS011;69117;47.148;18.954;2023-04-24T04:11:13;6.03;;;4.13;;
79644;SDS011;69117;47.148;18.954;2023-04-24T04:14:14;5.93;;;4.28;;
79644;SDS011;69117;47.148;18.954;2023-04-24T04:17:16;7.22;;;4.47;;
79644;SDS011;69117;47.148;18.954;2023-04-24T04:20:18;5.68;;;4.18;;
79644;SDS011;69117;47.148;18.954;2023-04-24T04:23:19;7.10;;;4.28;;
79644;SDS011;69117;47.148;18.954;2023-04-24T04:26:21;5.38;;;3.60;;
79644;SDS011;69117;47.148;18.954;2023-04-24T04:29:26;6.47;;;5.00;;
79644;SDS011;69117;47.148;18.954;2023-04-24T04:32:28;6.82;;;4.65;;
79644;SDS011;69117;47.148;18.954;2023-04-24T04:35:30;7.68;;;5.40;;
79644;SDS011;69117;47.148;18.954;2023-04-24T04:38:31;6.78;;;4.38;;
79644;SDS011;69117;47.148;18.954;2023-04-24T04:41:33;7.65;;;4.65;;
79644;SDS011;69117;47.148;18.954;2023-04-24T04:44:36;6.55;;;4.47;;
79644;SDS011;69117;47.148;18.954;2023-04-24T04:47:39;7.80;;;4.68;;
79644;SDS011;69117;47.148;18.954;2023-04-24T04:50:41;9.20;;;4.88;;
79644;SDS011;69117;47.148;18.954;2023-04-24T04:53:42;6.75;;;4.30;;
79644;SDS011;69117;47.148;18.954;2023-04-24T04:56:53;8.45;;;5.45;;
79644;SDS011;69117;47.148;18.954;2023-04-24T04:59:55;6.80;;;4.93;;
79644;SDS011;69117;47.148;18.954;2023-04-24T05:02:57;8.75;;;4.55;;
79644;SDS011;69117;47.148;18.954;2023-04-24T05:06:13;8.93;;;5.38;;
79644;SDS011;69117;47.148;18.954;2023-04-24T05:09:14;8.00;;;5.65;;
79644;SDS011;69117;47.148;18.954;2023-04-24T05:12:16;6.47;;;3.95;;
79644;SDS011;69117;47.148;18.954;2023-04-24T05:15:18;8.95;;;4.68;;
79644;SDS011;69117;47.148;18.954;2023-04-24T05:18:19;9.18;;;5.18;;
79644;SDS011;69117;47.148;18.954;2023-04-24T05:21:21;6.50;;;4.18;;
79644;SDS011;69117;47.148;18.954;2023-04-24T05:24:23;9.02;;;4.30;;
79644;SDS011;69117;47.148;18.954;2023-04-24T05:27:25;5.22;;;4.00;;
79644;SDS011;69117;47.148;18.954;2023-04-24T05:30:26;7.75;;;3.33;;
79644;SDS011;69117;47.148;18.954;2023-04-24T05:33:28;5.95;;;4.22;;
79644;SDS011;69117;47.148;18.954;2023-04-24T05:36:30;8.18;;;4.50;;
79644;SDS011;69117;47.148;18.954;2023-04-24T05:39:32;5.70;;;4.40;;
79644;SDS011;69117;47.148;18.954;2023-04-24T05:42:34;5.45;;;4.32;;
79644;SDS011;69117;47.148;18.954;2023-04-24T05:45:35;8.98;;;4.78;;
79644;SDS011;69117;47.148;18.954;2023-04-24T05:48:37;5.35;;;4.05;;
79644;SDS011;69117;47.148;18.954;2023-04-24T05:51:38;5.80;;;3.92;;
79644;SDS011;69117;47.148;18.954;2023-04-24T05:54:41;6.68;;;4.40;;
79644;SDS011;69117;47.148;18.954;2023-04-24T05:57:42;4.75;;;3.03;;
79644;SDS011;69117;47.148;18.954;2023-04-24T06:00:44;8.48;;;4.30;;
79644;SDS011;69117;47.148;18.954;2023-04-24T06:03:48;5.88;;;3.88;;
79644;SDS011;69117;47.148;18.954;2023-04-24T06:06:50;5.80;;;4.05;;
79644;SDS011;69117;47.148;18.954;2023-04-24T06:09:56;9.20;;;4.95;;
79644;SDS011;69117;47.148;18.954;2023-04-24T06:12:58;6.80;;;4.22;;
79644;SDS011;69117;47.148;18.954;2023-04-24T06:16:01;6.80;;;4.63;;
79644;SDS011;69117;47.148;18.954;2023-04-24T06:19:03;7.18;;;4.93;;
79644;SDS011;69117;47.148;18.954;2023-04-24T06:22:05;6.05;;;4.32;;
79644;SDS011;69117;47.148;18.954;2023-04-24T06:25:08;9.80;;;4.35;;
79644;SDS011;69117;47.148;18.954;2023-04-24T06:28:10;7.40;;;4.68;;
79644;SDS011;69117;47.148;18.954;2023-04-24T06:31:11;6.82;;;4.93;;
79644;SDS011;69117;47.148;18.954;2023-04-24T06:34:13;11.40;;;5.45;;
79644;SDS011;69117;47.148;18.954;2023-04-24T06:37:15;9.02;;;5.68;;
79644;SDS011;69117;47.148;18.954;2023-04-24T06:40:17;9.38;;;5.75;;
79644;SDS011;69117;47.148;18.954;2023-04-24T06:43:19;8.25;;;5.93;;
79644;SDS011;69117;47.148;18.954;2023-04-24T06:46:21;9.07;;;6.00;;
79644;SDS011;69117;47.148;18.954;2023-04-24T06:49:25;10.77;;;5.53;;
79644;SDS011;69117;47.148;18.954;2023-04-24T06:52:26;10.68;;;5.65;;
79644;SDS011;69117;47.148;18.954;2023-04-24T06:55:28;13.30;;;6.90;;
79644;SDS011;69117;47.148;18.954;2023-04-24T06:58:30;13.30;;;6.10;;
79644;SDS011;69117;47.148;18.954;2023-04-24T07:01:32;6.45;;;4.72;;
79644;SDS011;69117;47.148;18.954;2023-04-24T07:04:33;9.40;;;5.82;;
79644;SDS011;69117;47.148;18.954;2023-04-24T07:07:35;9.35;;;5.88;;
79644;SDS011;69117;47.148;18.954;2023-04-24T07:10:39;7.55;;;5.28;;
79644;SDS011;69117;47.148;18.954;2023-04-24T07:13:40;8.63;;;5.55;;
79644;SDS011;69117;47.148;18.954;2023-04-24T07:16:45;7.93;;;5.80;;
79644;SDS011;69117;47.148;18.954;2023-04-24T07:19:47;9.50;;;6.32;;
79644;SDS011;69117;47.148;18.954;2023-04-24T07:22:48;7.68;;;5.35;;
79644;SDS011;69117;47.148;18.954;2023-04-24T07:25:50;10.05;;;5.40;;
79644;SDS011;69117;47.148;18.954;2023-04-24T07:28:52;9.48;;;5.70;;
79644;SDS011;69117;47.148;18.954;2023-04-24T07:31:54;7.63;;;5.35;;
79644;SDS011;69117;47.148;18.954;2023-04-24T07:34:56;11.45;;;5.80;;
79644;SDS011;69117;47.148;18.954;2023-04-24T07:37:57;10.82;;;6.10;;
79644;SDS011;69117;47.148;18.954;2023-04-24T07:40:59;16.23;;;7.53;;
79644;SDS011;69117;47.148;18.954;2023-04-24T07:44:01;15.57;;;8.45;;
79644;SDS011;69117;47.148;18.954;2023-04-24T07:47:02;9.02;;;6.57;;
79644;SDS011;69117;47.148;18.954;2023-04-24T07:50:04;12.57;;;7.20;;
79644;SDS011;69117;47.148;18.954;2023-04-24T07:53:06;8.82;;;5.25;;
79644;SDS011;69117;47.148;18.954;2023-04-24T07:56:08;11.80;;;5.97;;
79644;SDS011;69117;47.148;18.954;2023-04-24T07:59:10;7.72;;;5.40;;
79644;SDS011;69117;47.148;18.954;2023-04-24T08:02:12;12.05;;;6.85;;
79644;SDS011;69117;47.148;18.954;2023-04-24T08:05:14;9.68;;;5.90;;
79644;SDS011;69117;47.148;18.954;2023-04-24T08:08:16;8.60;;;6.03;;
79644;SDS011;69117;47.148;18.954;2023-04-24T08:11:18;10.55;;;6.28;;
79644;SDS011;69117;47.148;18.954;2023-04-24T08:14:20;9.35;;;5.93;;
79644;SDS011;69117;47.148;18.954;2023-04-24T08:17:21;7.63;;;5.18;;
79644;SDS011;69117;47.148;18.954;2023-04-24T08:20:23;10.32;;;6.18;;
79644;SDS011;69117;47.148;18.954;2023-04-24T08:23:24;8.90;;;6.32;;
79644;SDS011;69117;47.148;18.954;2023-04-24T08:26:26;9.48;;;5.93;;
79644;SDS011;69117;47.148;18.954;2023-04-24T08:29:27;7.75;;;5.00;;
79644;SDS011;69117;47.148;18.954;2023-04-24T08:32:29;8.52;;;4.97;;
79644;SDS011;69117;47.148;18.954;2023-04-24T08:35:32;9.23;;;5.82;;
79644;SDS011;69117;47.148;18.954;2023-04-24T08:38:34;8.98;;;5.22;;
79644;SDS011;69117;47.148;18.954;2023-04-24T08:41:35;6.53;;;4.35;;
79644;SDS011;69117;47.148;18.954;2023-04-24T08:44:39;8.05;;;6.18;;
79644;SDS011;69117;47.148;18.954;2023-04-24T08:47:41;9.30;;;5.53;;
79644;SDS011;69117;47.148;18.954;2023-04-24T08:50:43;7.95;;;4.97;;
79644;SDS011;69117;47.148;18.954;2023-04-24T08:53:46;6.95;;;4.65;;
79644;SDS011;69117;47.148;18.954;2023-04-24T08:56:48;7.60;;;4.97;;
79644;SDS011;69117;47.148;18.954;2023-04-24T08:59:50;14.27;;;6.38;;
79644;SDS011;69117;47.148;18.954;2023-04-24T09:02:52;7.65;;;5.57;;
79644;SDS011;69117;47.148;18.954;2023-04-24T09:05:55;8.70;;;6.18;;
79644;SDS011;69117;47.148;18.954;2023-04-24T09:09:02;8.27;;;6.40;;
79644;SDS011;69117;47.148;18.954;2023-04-24T09:12:04;8.27;;;5.18;;
79644;SDS011;69117;47.148;18.954;2023-04-24T09:15:06;7.45;;;6.18;;
79644;SDS011;69117;47.148;18.954;2023-04-24T09:18:09;8.38;;;6.43;;
79644;SDS011;69117;47.148;18.954;2023-04-24T09:21:11;9.10;;;5.75;;
79644;SDS011;69117;47.148;18.954;2023-04-24T09:24:17;8.63;;;5.82;;
79644;SDS011;69117;47.148;18.954;2023-04-24T09:27:22;9.40;;;5.75;;
79644;SDS011;69117;47.148;18.954;2023-04-24T09:30:25;10.80;;;6.28;;
79644;SDS011;69117;47.148;18.954;2023-04-24T09:33:26;10.38;;;6.72;;
79644;SDS011;69117;47.148;18.954;2023-04-24T09:36:28;11.50;;;6.63;;
79644;SDS011;69117;47.148;18.954;2023-04-24T09:39:34;10.40;;;6.40;;
79644;SDS011;69117;47.148;18.954;2023-04-24T09:42:35;9.25;;;6.32;;
79644;SDS011;69117;47.148;18.954;2023-04-24T09:45:38;8.40;;;6.07;;
79644;SDS011;69117;47.148;18.954;2023-04-24T09:48:41;8.63;;;5.00;;
79644;SDS011;69117;47.148;18.954;2023-04-24T09:51:42;7.28;;;5.05;;
79644;SDS011;69117;47.148;18.954;2023-04-24T09:54:46;7.57;;;5.32;;
79644;SDS011;69117;47.148;18.954;2023-04-24T09:57:56;9.93;;;4.95;;
79644;SDS011;69117;47.148;18.954;2023-04-24T10:00:59;9.00;;;5.07;;
79644;SDS011;69117;47.148;18.954;2023-04-24T10:04:01;9.18;;;5.90;;
79644;SDS011;69117;47.148;18.954;2023-04-24T10:07:03;7.38;;;5.22;;
79644;SDS011;69117;47.148;18.954;2023-04-24T10:10:10;7.25;;;4.78;;
79644;SDS011;69117;47.148;18.954;2023-04-24T10:13:13;7.25;;;4.82;;
79644;SDS011;69117;47.148;18.954;2023-04-24T10:16:16;7.28;;;5.10;;
79644;SDS011;69117;47.148;18.954;2023-04-24T10:19:18;7.22;;;4.32;;
79644;SDS011;69117;47.148;18.954;2023-04-24T10:22:21;4.80;;;3.85;;
79644;SDS011;69117;47.148;18.954;2023-04-24T10:25:25;6.10;;;3.55;;
79644;SDS011;69117;47.148;18.954;2023-04-24T10:28:30;7.53;;;4.85;;
79644;SDS011;69117;47.148;18.954;2023-04-24T10:31:33;9.32;;;4.90;;
79644;SDS011;69117;47.148;18.954;2023-04-24T10:34:35;7.43;;;4.95;;
79644;SDS011;69117;47.148;18.954;2023-04-24T10:37:37;7.32;;;5.20;;
79644;SDS011;69117;47.148;18.954;2023-04-24T10:41:09;6.88;;;5.30;;
79644;SDS011;69117;47.148;18.954;2023-04-24T10:44:17;8.73;;;4.90;;
79644;SDS011;69117;47.148;18.954;2023-04-24T10:47:19;7.57;;;5.57;;
79644;SDS011;69117;47.148;18.954;2023-04-24T10:50:20;10.77;;;5.13;;
79644;SDS011;69117;47.148;18.954;2023-04-24T10:53:23;7.88;;;4.80;;
79644;SDS011;69117;47.148;18.954;2023-04-24T10:56:28;9.98;;;6.32;;
79644;SDS011;69117;47.148;18.954;2023-04-24T10:59:34;7.85;;;5.03;;
79644;SDS011;69117;47.148;18.954;2023-04-24T11:02:39;6.60;;;4.25;;
79644;SDS011;69117;47.148;18.954;2023-04-24T11:08:57;5.22;;;3.88;;
79644;SDS011;69117;47.148;18.954;2023-04-24T11:12:08;9.38;;;4.22;;
79644;SDS011;69117;47.148;18.954;2023-04-24T11:15:12;6.60;;;3.92;;
79644;SDS011;69117;47.148;18.954;2023-04-24T11:18:14;9.23;;;4.60;;
79644;SDS011;69117;47.148;18.954;2023-04-24T11:21:17;4.78;;;3.08;;
79644;SDS011;69117;47.148;18.954;2023-04-24T11:27:26;6.18;;;3.22;;
79644;SDS011;69117;47.148;18.954;2023-04-24T11:30:40;5.07;;;3.47;;
79644;SDS011;69117;47.148;18.954;2023-04-24T11:33:42;5.50;;;2.95;;
79644;SDS011;69117;47.148;18.954;2023-04-24T11:36:44;7.15;;;2.30;;
79644;SDS011;69117;47.148;18.954;2023-04-24T11:39:47;4.68;;;2.40;;
79644;SDS011;69117;47.148;18.954;2023-04-24T11:42:52;4.22;;;2.95;;
79644;SDS011;69117;47.148;18.954;2023-04-24T11:45:59;6.35;;;2.83;;
79644;SDS011;69117;47.148;18.954;2023-04-24T11:49:01;3.67;;;2.28;;
79644;SDS011;69117;47.148;18.954;2023-04-24T11:52:03;4.22;;;2.13;;
79644;SDS011;69117;47.148;18.954;2023-04-24T11:55:25;8.18;;;2.35;;
79644;SDS011;69117;47.148;18.954;2023-04-24T11:58:28;4.25;;;2.63;;
79644;SDS011;69117;47.148;18.954;2023-04-24T12:01:45;8.10;;;3.03;;
79644;SDS011;69117;47.148;18.954;2023-04-24T12:04:47;4.53;;;2.20;;
79644;SDS011;69117;47.148;18.954;2023-04-24T12:07:50;2.03;;;1.65;;
79644;SDS011;69117;47.148;18.954;2023-04-24T12:10:51;2.92;;;1.55;;
79644;SDS011;69117;47.148;18.954;2023-04-24T12:13:53;3.70;;;2.00;;
79644;SDS011;69117;47.148;18.954;2023-04-24T12:16:55;3.78;;;1.52;;
79644;SDS011;69117;47.148;18.954;2023-04-24T12:19:57;3.70;;;1.27;;
79644;SDS011;69117;47.148;18.954;2023-04-24T12:23:03;2.05;;;1.17;;
79644;SDS011;69117;47.148;18.954;2023-04-24T12:26:05;2.15;;;0.90;;
79644;SDS011;69117;47.148;18.954;2023-04-24T12:29:07;4.03;;;1.02;;
79644;SDS011;69117;47.148;18.954;2023-04-24T12:32:15;2.67;;;1.02;;
79644;SDS011;69117;47.148;18.954;2023-04-24T12:35:21;3.85;;;1.15;;
79644;SDS011;69117;47.148;18.954;2023-04-24T12:38:25;2.10;;;1.15;;
79644;SDS011;69117;47.148;18.954;2023-04-24T12:41:27;4.72;;;1.65;;
79644;SDS011;69117;47.148;18.954;2023-04-24T12:44:32;3.30;;;1.40;;
79644;SDS011;69117;47.148;18.954;2023-04-24T12:47:35;2.50;;;1.40;;
79644;SDS011;69117;47.148;18.954;2023-04-24T12:50:37;2.63;;;2.03;;
79644;SDS011;69117;47.148;18.954;2023-04-24T12:53:39;4.60;;;1.95;;
79644;SDS011;69117;47.148;18.954;2023-04-24T12:56:41;4.80;;;2.65;;
79644;SDS011;69117;47.148;18.954;2023-04-24T12:59:43;5.07;;;2.28;;
79644;SDS011;69117;47.148;18.954;2023-04-24T13:02:45;3.53;;;2.13;;
79644;SDS011;69117;47.148;18.954;2023-04-24T13:05:47;6.13;;;3.20;;
79644;SDS011;69117;47.148;18.954;2023-04-24T13:08:48;5.47;;;2.78;;
79644;SDS011;69117;47.148;18.954;2023-04-24T13:11:50;5.32;;;2.20;;
79644;SDS011;69117;47.148;18.954;2023-04-24T13:14:52;5.15;;;2.58;;
79644;SDS011;69117;47.148;18.954;2023-04-24T13:17:54;5.53;;;2.88;;
79644;SDS011;69117;47.148;18.954;2023-04-24T13:20:55;5.13;;;3.10;;
79644;SDS011;69117;47.148;18.954;2023-04-24T13:23:57;4.10;;;2.80;;
79644;SDS011;69117;47.148;18.954;2023-04-24T13:26:59;6.07;;;3.47;;
79644;SDS011;69117;47.148;18.954;2023-04-24T13:30:02;4.55;;;2.90;;
79644;SDS011;69117;47.148;18.954;2023-04-24T13:33:04;6.35;;;3.20;;
79644;SDS011;69117;47.148;18.954;2023-04-24T13:36:06;7.30;;;3.97;;
79644;SDS011;69117;47.148;18.954;2023-04-24T13:39:08;5.13;;;3.22;;
79644;SDS011;69117;47.148;18.954;2023-04-24T13:42:09;6.55;;;3.35;;
79644;SDS011;69117;47.148;18.954;2023-04-24T13:45:12;4.65;;;2.65;;
79644;SDS011;69117;47.148;18.954;2023-04-24T13:48:24;9.27;;;3.88;;
79644;SDS011;69117;47.148;18.954;2023-04-24T13:51:26;5.88;;;3.83;;
79644;SDS011;69117;47.148;18.954;2023-04-24T13:54:28;6.75;;;3.17;;
79644;SDS011;69117;47.148;18.954;2023-04-24T13:57:29;8.82;;;3.95;;
79644;SDS011;69117;47.148;18.954;2023-04-24T14:00:32;6.32;;;2.92;;
79644;SDS011;69117;47.148;18.954;2023-04-24T14:03:34;6.60;;;3.80;;
79644;SDS011;69117;47.148;18.954;2023-04-24T14:06:36;6.28;;;3.13;;
79644;SDS011;69117;47.148;18.954;2023-04-24T14:09:37;7.60;;;3.70;;
79644;SDS011;69117;47.148;18.954;2023-04-24T14:12:39;6.57;;;3.33;;
79644;SDS011;69117;47.148;18.954;2023-04-24T14:15:41;6.45;;;3.88;;
79644;SDS011;69117;47.148;18.954;2023-04-24T14:18:43;6.07;;;3.55;;
79644;SDS011;69117;47.148;18.954;2023-04-24T14:21:44;5.63;;;3.72;;
79644;SDS011;69117;47.148;18.954;2023-04-24T14:24:46;5.95;;;3.75;;
79644;SDS011;69117;47.148;18.954;2023-04-24T14:27:47;6.03;;;3.53;;
79644;SDS011;69117;47.148;18.954;2023-04-24T14:30:49;7.05;;;4.00;;
79644;SDS011;69117;47.148;18.954;2023-04-24T14:33:51;4.72;;;3.58;;
79644;SDS011;69117;47.148;18.954;2023-04-24T14:36:53;5.38;;;3.40;;
79644;SDS011;69117;47.148;18.954;2023-04-24T14:39:55;6.43;;;3.85;;
79644;SDS011;69117;47.148;18.954;2023-04-24T14:43:16;6.13;;;3.88;;
79644;SDS011;69117;47.148;18.954;2023-04-24T14:46:18;4.22;;;2.97;;
79644;SDS011;69117;47.148;18.954;2023-04-24T14:49:20;4.22;;;3.00;;
79644;SDS011;69117;47.148;18.954;2023-04-24T14:52:21;6.35;;;2.97;;
79644;SDS011;69117;47.148;18.954;2023-04-24T14:55:23;4.72;;;3.17;;
79644;SDS011;69117;47.148;18.954;2023-04-24T14:58:26;5.03;;;2.92;;
79644;SDS011;69117;47.148;18.954;2023-04-24T15:01:27;4.72;;;3.30;;
79644;SDS011;69117;47.148;18.954;2023-04-24T15:04:29;4.65;;;3.17;;
79644;SDS011;69117;47.148;18.954;2023-04-24T15:07:32;5.18;;;3.55;;
79644;SDS011;69117;47.148;18.954;2023-04-24T15:10:34;5.03;;;3.40;;
79644;SDS011;69117;47.148;18.954;2023-04-24T15:13:36;5.60;;;3.53;;
79644;SDS011;69117;47.148;18.954;2023-04-24T15:16:38;4.80;;;3.22;;
79644;SDS011;69117;47.148;18.954;2023-04-24T15:19:39;4.93;;;3.03;;
79644;SDS011;69117;47.148;18.954;2023-04-24T15:22:41;7.07;;;3.20;;
79644;SDS011;69117;47.148;18.954;2023-04-24T15:25:43;4.72;;;2.63;;
79644;SDS011;69117;47.148;18.954;2023-04-24T15:28:45;4.05;;;1.85;;
79644;SDS011;69117;47.148;18.954;2023-04-24T15:31:47;1.88;;;1.50;;
79644;SDS011;69117;47.148;18.954;2023-04-24T15:34:49;7.07;;;1.67;;
79644;SDS011;69117;47.148;18.954;2023-04-24T15:38:05;2.08;;;1.38;;
79644;SDS011;69117;47.148;18.954;2023-04-24T15:41:07;2.63;;;1.80;;
79644;SDS011;69117;47.148;18.954;2023-04-24T15:44:08;3.65;;;2.58;;
79644;SDS011;69117;47.148;18.954;2023-04-24T15:47:10;4.72;;;2.40;;
79644;SDS011;69117;47.148;18.954;2023-04-24T15:50:13;6.80;;;2.38;;
79644;SDS011;69117;47.148;18.954;2023-04-24T15:53:17;5.95;;;2.80;;
79644;SDS011;69117;47.148;18.954;2023-04-24T15:56:22;9.43;;;4.07;;
79644;SDS011;69117;47.148;18.954;2023-04-24T15:59:24;9.75;;;5.90;;
79644;SDS011;69117;47.148;18.954;2023-04-24T16:02:27;10.27;;;5.43;;
79644;SDS011;69117;47.148;18.954;2023-04-24T16:05:28;13.07;;;6.40;;
79644;SDS011;69117;47.148;18.954;2023-04-24T16:08:31;10.23;;;6.00;;
79644;SDS011;69117;47.148;18.954;2023-04-24T16:11:32;13.70;;;6.93;;
79644;SDS011;69117;47.148;18.954;2023-04-24T16:14:36;3.70;;;2.65;;
79644;SDS011;69117;47.148;18.954;2023-04-24T16:17:38;6.03;;;2.55;;
79644;SDS011;69117;47.148;18.954;2023-04-24T16:20:40;3.75;;;2.38;;
79644;SDS011;69117;47.148;18.954;2023-04-24T16:23:41;5.68;;;3.25;;
79644;SDS011;69117;47.148;18.954;2023-04-24T16:26:43;5.82;;;3.05;;
79644;SDS011;69117;47.148;18.954;2023-04-24T16:29:45;5.65;;;3.72;;
79644;SDS011;69117;47.148;18.954;2023-04-24T16:32:46;5.20;;;3.85;;
79644;SDS011;69117;47.148;18.954;2023-04-24T16:35:48;8.05;;;4.15;;
79644;SDS011;69117;47.148;18.954;2023-04-24T16:38:50;7.97;;;4.35;;
79644;SDS011;69117;47.148;18.954;2023-04-24T16:41:52;7.13;;;3.60;;
79644;SDS011;69117;47.148;18.954;2023-04-24T16:44:55;9.23;;;4.45;;
79644;SDS011;69117;47.148;18.954;2023-04-24T16:47:56;5.22;;;2.97;;
79644;SDS011;69117;47.148;18.954;2023-04-24T16:50:58;3.95;;;2.53;;
79644;SDS011;69117;47.148;18.954;2023-04-24T16:53:59;3.88;;;2.58;;
79644;SDS011;69117;47.148;18.954;2023-04-24T16:57:01;4.30;;;2.72;;
79644;SDS011;69117;47.148;18.954;2023-04-24T17:00:04;6.38;;;3.13;;
79644;SDS011;69117;47.148;18.954;2023-04-24T17:03:08;4.50;;;2.90;;
79644;SDS011;69117;47.148;18.954;2023-04-24T17:06:13;8.02;;;3.75;;
79644;SDS011;69117;47.148;18.954;2023-04-24T17:09:14;5.80;;;3.20;;
79644;SDS011;69117;47.148;18.954;2023-04-24T17:12:17;6.72;;;3.63;;
79644;SDS011;69117;47.148;18.954;2023-04-24T17:15:19;5.38;;;3.03;;
79644;SDS011;69117;47.148;18.954;2023-04-24T17:18:20;8.18;;;3.92;;
79644;SDS011;69117;47.148;18.954;2023-04-24T17:21:22;6.82;;;3.60;;
79644;SDS011;69117;47.148;18.954;2023-04-24T17:24:24;5.47;;;4.05;;
79644;SDS011;69117;47.148;18.954;2023-04-24T17:27:26;6.18;;;2.83;;
79644;SDS011;69117;47.148;18.954;2023-04-24T17:30:27;6.13;;;3.80;;
79644;SDS011;69117;47.148;18.954;2023-04-24T17:33:29;7.18;;;4.70;;
79644;SDS011;69117;47.148;18.954;2023-04-24T17:36:31;8.55;;;4.95;;
79644;SDS011;69117;47.148;18.954;2023-04-24T17:39:33;8.60;;;5.75;;
79644;SDS011;69117;47.148;18.954;2023-04-24T17:42:35;8.20;;;4.53;;
79644;SDS011;69117;47.148;18.954;2023-04-24T17:45:38;7.45;;;4.38;;
79644;SDS011;69117;47.148;18.954;2023-04-24T17:48:40;6.38;;;3.55;;
79644;SDS011;69117;47.148;18.954;2023-04-24T17:51:42;5.25;;;3.00;;
79644;SDS011;69117;47.148;18.954;2023-04-24T17:54:43;5.28;;;3.35;;
79644;SDS011;69117;47.148;18.954;2023-04-24T17:57:45;6.72;;;3.72;;
79644;SDS011;69117;47.148;18.954;2023-04-24T18:00:47;7.45;;;4.10;;
79644;SDS011;69117;47.148;18.954;2023-04-24T18:03:48;14.65;;;7.90;;
79644;SDS011;69117;47.148;18.954;2023-04-24T18:06:51;21.65;;;9.77;;
79644;SDS011;69117;47.148;18.954;2023-04-24T18:09:52;19.45;;;9.35;;